Terminal Aerodrome Forecast
Issued by NWS

Home | Current Version | Previous Version | Text Only | Print | Product List | Glossary On
Versions: 1 2 3 4 5 6 7 8 9 10 11 12 13 14 15
562
FTUS43 KGRB 191736
TAFAUW
TAF
KAUW 191736Z 1918/2018 12007KT P6SM SCT150
     FM200600 14007KT P6SM BKN017
     FM201100 14008KT P6SM BKN027
      TEMPO 2011/2014 6SM -SHRA
     FM201400 15009KT P6SM -SHRA BKN021=

USA.gov is the U.S. government's official web portal to all federal, state and local government web resources and services.